マドリード・バラハス国際空港の過去48時間の天気

マドリード・バラハス国際空港 (Madrid / Barajas)

現在時刻: 11/21 13:20 CET (11/21 12:20 UTC) 以下の時間は現地時間です。

過去48時間のMETAR気象情報
時間 風向 風速(m/s) 視程 気温(℃) 湿度(%) 気圧(hPa) 天気現象
21 13:00 北北東 2 4500m 7 100 1008 もや
21 12:30 不定 1 4500m 7 93 1008 弱い雨 もや
21 12:00 2 4500m 7 93 1009 弱い雨 もや
21 11:30 2 6000m 7 93 1009
21 11:00 北北東 2 6000m 7 93 1009
21 10:30 南南西 3 6000m 8 87 1008
21 10:00 2 5000m 7 100 1008 もや
21 09:30 2 4000m 7 93 1008 もや
21 09:00 2 2500m 7 93 1008 弱い霧雨 もや
21 08:30 2 2300m 7 93 1008 弱い霧雨 もや
21 08:17 不定 1 2300m 7 93 1008 弱い霧雨 もや
21 08:00 2 2500m 6 100 1008 弱い雨 もや
21 07:30 南南東 2 2500m 6 100 1008 もや 弱い雨
21 07:00 南南東 2 4000m 6 100 1008 もや
21 06:30 南南東 3 4000m 6 100 1007 もや
21 06:00 不定 1 4500m 6 100 1007 もや
21 05:41 南南東 2 3500m 7 93 1008 もや
21 05:30 3 3500m 6 100 1008 もや
21 05:00 不定 1 4000m 7 93 1008 もや
21 04:30 3 5000m 6 100 1008 もや
21 04:00 2 5000m 6 100 1008 もや
21 03:30 南南東 2 3500m 6 100 1008 もや
21 03:12 南南東 2 3000m 6 100 1008 もや
21 03:00 南東 2 5000m 6 100 1008 もや
21 02:30 南南東 1 5000m 6 100 1008 もや
21 02:00 不定 1 5000m 6 93 1008 もや
21 01:30 2 5000m 6 93 1008 もや
21 01:00 南南東 2 5000m 6 100 1009 もや
21 00:30 不定 1 3500m 6 93 1009 もや
21 00:00 南東 2 4000m 6 100 1009 もや
20 23:30 不定 1 4500m 6 93 1009 もや
20 23:00 不定 1 5000m 6 93 1009 弱い霧雨 もや
20 22:30 不定 1 5000m 6 93 1009 弱い霧雨 もや
20 22:00 不定 1 5000m 6 93 1009 弱い雨
20 21:30 不定 1 4000m 6 93 1009 弱い雨
20 21:00 1 5000m 5 100 1009 霧雨
20 20:30 静穏 0 5000m 6 93 1009 霧雨
LEMD 211200Z 02003KT 340V060 4500 BR FEW006 BKN011 BKN018 07/07 Q1008 NOSIG
LEMD 211130Z VRB01KT 4500 -RA BR FEW010 BKN013 BKN020 07/06 Q1008 NOSIG
LEMD 211100Z 35003KT 4500 -RA BR FEW004 BKN013 BKN020 07/06 Q1009 NOSIG
LEMD 211030Z 36003KT 6000 SCT005 BKN012 BKN025 07/06 Q1009 NOSIG
LEMD 211000Z 03003KT 6000 SCT006 BKN010 BKN025 07/06 Q1009 NOSIG
LEMD 210930Z 20005KT 170V250 6000 SCT006 BKN010 08/06 Q1008 NOSIG
LEMD 210900Z 18004KT 150V250 5000 BR FEW004 BKN006 BKN015 07/07 Q1008 NOSIG
LEMD 210830Z 18004KT 130V220 4000 BR FEW004 BKN006 BKN015 07/06 Q1008 NOSIG
LEMD 210800Z 18003KT 150V240 2500 -DZ BR SCT004 BKN006 OVC015 07/06 Q1008 NOSIG
LEMD 210730Z 18003KT 150V230 2300 -DZ BR SCT003 BKN006 OVC015 07/06 Q1008 NOSIG
LEMD 210717Z VRB02KT 2300 -DZ BR SCT003 BKN008 OVC015 07/06 Q1008 NOSIG
LEMD 210700Z 17004KT 110V210 2500 -RA BR SCT003 BKN010 06/06 Q1008 NOSIG
LEMD 210630Z 16003KT 140V210 2500 BR -RA SCT003 BKN010 06/06 Q1008 R88/29//95 NOSIG
LEMD 210600Z 15003KT 4000 BR FEW004 BKN011 06/06 Q1008 R88/29//95 NOSIG
LEMD 210530Z 15005KT 4000 BR FEW005 OVC012 06/06 Q1007 R88/29//95 NOSIG
LEMD 210500Z VRB02KT 4500 2000 BR BKN012 BKN018 06/06 Q1007 R88/29//95 NOSIG
LEMD 210441Z 16003KT 140V200 3500 1600 BR FEW010 BKN013 OVC018 07/06 Q1008 R88/29//95 NOSIG
LEMD 210430Z 17005KT 3500 BR FEW010 BKN015 OVC020 06/06 Q1008 R88/29//95 NOSIG
LEMD 210400Z VRB02KT 4000 1600 BR FEW010 BKN015 OVC020 07/06 Q1008 R88/29//95 NOSIG
LEMD 210330Z 18005KT 5000 2400S BR SCT007 BKN017 OVC025 06/06 Q1008 R88/29//95 NOSIG
LEMD 210300Z 18003KT 150V210 5000 2400S BR SCT007 BKN015 OVC025 06/06 Q1008 R88/29//95 NOSIG
LEMD 210230Z 15003KT 120V180 3500 BR SCT006 BKN015 OVC025 06/06 Q1008 R88/29//95 NOSIG
LEMD 210212Z 15003KT 3000 BR SCT007 BKN015 OVC025 06/06 Q1008 R88/29//95 NOSIG
LEMD 210200Z 13003KT 100V170 5000 2400SE BR SCT007 BKN012 OVC025 06/06 Q1008 R88/29//95 NOSIG
LEMD 210130Z 15001KT 5000 2400SE BR SCT007 BKN012 OVC025 06/06 Q1008 R88/29//95 NOSIG
LEMD 210100Z VRB02KT 5000 2400SE BR SCT007 BKN012 OVC025 06/05 Q1008 R88/29//95 NOSIG
LEMD 210030Z 17004KT 5000 2400S BR SCT008 BKN015 OVC032 06/05 Q1008 R88/29//95 NOSIG
LEMD 210000Z 16004KT 5000 BR SCT007 BKN011 OVC032 06/06 Q1009 R88/29//95 NOSIG
LEMD 202330Z VRB02KT 3500 BR SCT007 BKN011 BKN030 06/05 Q1009 R88/29//95 NOSIG
LEMD 202300Z 13003KT 090V160 4000 BR SCT006 BKN010 BKN030 06/06 Q1009 R88/29//95 NOSIG
LEMD 202230Z VRB01KT 4500 BR SCT005 BKN009 BKN030 06/05 Q1009 R88/29//95 NOSIG
LEMD 202200Z VRB02KT 5000 -DZ BR SCT006 BKN013 BKN035 06/05 Q1009 R88/29//95 NOSIG
LEMD 202130Z VRB01KT 5000 -DZ BR SCT008 BKN013 BKN025 06/05 Q1009 R88/29//95 NOSIG
LEMD 202100Z VRB01KT 5000 -RA FEW008 BKN013 BKN023 06/05 Q1009 R88/29//95 NOSIG
LEMD 202030Z VRB01KT 4000 -RA FEW008 BKN013 BKN023 06/05 Q1009 REDZ R88/29//95 NOSIG
LEMD 202000Z 08001KT 5000 DZ FEW008 BKN013 OVC023 05/05 Q1009 R88/29//95 NOSIG
LEMD 201930Z 00000KT 5000 DZ FEW008 BKN014 OVC040 06/05 Q1009 R88/29//95 TEMPO RA